Manhattan Regional Airport
KMHK : now visible

Airfield :











YOU CAN JOIN US ON...

 
LOGIN :

Register | Disclaimer

   EN    FR    IT 

 









Legend :    VFR   Marginal VFR   IFR   Intensive IFR   Very Intensive IFR
Visi :
Ceiling :
>= 8 km
>= 3000ft
5 to 8 km
1000 to 3000 ft
1500m to 5 km
500 to 1000 ft
800 to 1500m
200 to 500 ft
< 800m
< 200 ft
Symbols :   Thunderstorms  Fog  Heavy snow  Heavy precipitations  Wind > 20 kt






- Airport Elevation : 1057 ft
- IATA code : MHK


KMHK - Manhattan Regional

CURRENT METAR :
  • 270452Z AUTO 22005KT 10SM CLR M05/M09 A3028 RMK AO2 SLP266 T10501089

EXPIRED METARs :
  • 270352Z 23004KT 10SM CLR M04/M09 A3030 RMK AO2 SLP274 T10391094
  • 270252Z 23005KT 10SM CLR M03/M11 A3030 RMK AO2 SLP275 T10331106 56006

TAF KMHK
Valid from the 27 at 00:00 until the 28 at 00:00 UTC


262332Z 2700/2724 33007KT P6SM SKC
FM271500 24011KT P6SM FEW090 BKN250
FM271800 27012KT P6SM OVC060



MET'MAP, your aeronautical weather chart ! - Copyright ORBIFLY December 2007 - Disclaimer

ORBIFLY MET'MAP TEAM :

Programming & Development : Alexandra Zaïnal
Concept & original design : Baudouin d'Aumeries
Assistance for programming : Marc-Olivier Méhu
Technical & hardware support : Manuel Goepfert

Contact : metmap@orbifly.com




SOURCES & CREDITS :

   NOAA       Earth
Advisory